sensor_id;sensor_type;location;lat;lon;timestamp;temperature;humidity
52517;DHT22;59374;53.210;5.726;2022-09-02T00:01:11;14.70;99.90
52517;DHT22;59374;53.210;5.726;2022-09-02T00:03:37;14.70;99.90
52517;DHT22;59374;53.210;5.726;2022-09-02T00:06:03;14.60;99.90
52517;DHT22;59374;53.210;5.726;2022-09-02T00:08:30;14.60;99.90
52517;DHT22;59374;53.210;5.726;2022-09-02T00:10:57;14.70;99.90
52517;DHT22;59374;53.210;5.726;2022-09-02T00:13:23;14.70;99.90
52517;DHT22;59374;53.210;5.726;2022-09-02T00:15:49;14.60;99.90
52517;DHT22;59374;53.210;5.726;2022-09-02T00:18:16;14.60;99.90
52517;DHT22;59374;53.210;5.726;2022-09-02T00:20:44;14.60;99.90
52517;DHT22;59374;53.210;5.726;2022-09-02T00:23:11;14.60;99.90
52517;DHT22;59374;53.210;5.726;2022-09-02T00:25:38;14.60;99.90
52517;DHT22;59374;53.210;5.726;2022-09-02T00:28:05;14.50;99.90
52517;DHT22;59374;53.210;5.726;2022-09-02T00:30:33;14.60;99.90
52517;DHT22;59374;53.210;5.726;2022-09-02T00:32:59;14.50;99.90
52517;DHT22;59374;53.210;5.726;2022-09-02T00:35:25;14.40;99.90
52517;DHT22;59374;53.210;5.726;2022-09-02T00:37:51;14.40;99.90
52517;DHT22;59374;53.210;5.726;2022-09-02T00:40:17;14.40;99.90
52517;DHT22;59374;53.210;5.726;2022-09-02T00:42:43;14.40;99.90
52517;DHT22;59374;53.210;5.726;2022-09-02T00:45:10;14.30;99.90
52517;DHT22;59374;53.210;5.726;2022-09-02T00:47:36;14.30;99.90
52517;DHT22;59374;53.210;5.726;2022-09-02T00:50:05;14.30;99.90
52517;DHT22;59374;53.210;5.726;2022-09-02T00:52:36;14.20;99.90
52517;DHT22;59374;53.210;5.726;2022-09-02T00:55:28;14.20;99.90
52517;DHT22;59374;53.210;5.726;2022-09-02T00:58:00;14.20;99.90
52517;DHT22;59374;53.210;5.726;2022-09-02T01:00:32;14.10;99.90
52517;DHT22;59374;53.210;5.726;2022-09-02T01:03:02;14.00;99.90
52517;DHT22;59374;53.210;5.726;2022-09-02T01:05:31;14.10;99.90
52517;DHT22;59374;53.210;5.726;2022-09-02T01:07:58;14.00;99.90
52517;DHT22;59374;53.210;5.726;2022-09-02T01:10:30;14.00;99.90
52517;DHT22;59374;53.210;5.726;2022-09-02T01:13:05;14.00;99.90
52517;DHT22;59374;53.210;5.726;2022-09-02T01:15:39;14.00;99.90
52517;DHT22;59374;53.210;5.726;2022-09-02T01:18:09;13.90;99.90
52517;DHT22;59374;53.210;5.726;2022-09-02T01:20:37;13.90;99.90
52517;DHT22;59374;53.210;5.726;2022-09-02T01:23:03;13.90;99.90
52517;DHT22;59374;53.210;5.726;2022-09-02T01:25:31;13.90;99.90
52517;DHT22;59374;53.210;5.726;2022-09-02T01:28:10;13.90;99.90
52517;DHT22;59374;53.210;5.726;2022-09-02T01:30:40;13.80;99.90
52517;DHT22;59374;53.210;5.726;2022-09-02T01:33:07;13.80;99.90
52517;DHT22;59374;53.210;5.726;2022-09-02T01:35:33;13.80;99.90
52517;DHT22;59374;53.210;5.726;2022-09-02T01:38:00;13.70;99.90
52517;DHT22;59374;53.210;5.726;2022-09-02T01:40:28;13.70;99.90
52517;DHT22;59374;53.210;5.726;2022-09-02T01:42:58;13.70;99.90
52517;DHT22;59374;53.210;5.726;2022-09-02T01:45:25;13.70;99.90
52517;DHT22;59374;53.210;5.726;2022-09-02T01:47:50;13.70;99.90
52517;DHT22;59374;53.210;5.726;2022-09-02T01:50:16;13.60;99.90
52517;DHT22;59374;53.210;5.726;2022-09-02T01:52:42;13.60;99.90
52517;DHT22;59374;53.210;5.726;2022-09-02T01:55:08;13.60;99.90
52517;DHT22;59374;53.210;5.726;2022-09-02T01:57:34;13.60;99.90
52517;DHT22;59374;53.210;5.726;2022-09-02T01:59:59;13.50;99.90
52517;DHT22;59374;53.210;5.726;2022-09-02T02:02:26;13.60;99.90
52517;DHT22;59374;53.210;5.726;2022-09-02T02:04:52;13.50;99.90
52517;DHT22;59374;53.210;5.726;2022-09-02T02:07:20;13.50;99.90
52517;DHT22;59374;53.210;5.726;2022-09-02T02:09:47;13.50;99.90
52517;DHT22;59374;53.210;5.726;2022-09-02T02:12:13;13.50;99.90
52517;DHT22;59374;53.210;5.726;2022-09-02T02:14:39;13.50;99.90
52517;DHT22;59374;53.210;5.726;2022-09-02T02:17:04;13.50;99.90
52517;DHT22;59374;53.210;5.726;2022-09-02T02:19:30;13.50;99.90
52517;DHT22;59374;53.210;5.726;2022-09-02T02:21:56;13.60;99.90
52517;DHT22;59374;53.210;5.726;2022-09-02T02:24:21;13.60;99.90
52517;DHT22;59374;53.210;5.726;2022-09-02T02:26:48;13.60;99.90
52517;DHT22;59374;53.210;5.726;2022-09-02T02:29:13;13.50;99.90
52517;DHT22;59374;53.210;5.726;2022-09-02T02:31:39;13.50;99.90
52517;DHT22;59374;53.210;5.726;2022-09-02T02:34:05;13.50;99.90
52517;DHT22;59374;53.210;5.726;2022-09-02T02:36:31;13.40;99.90
52517;DHT22;59374;53.210;5.726;2022-09-02T02:38:57;13.40;99.90
52517;DHT22;59374;53.210;5.726;2022-09-02T02:41:22;13.40;99.90
52517;DHT22;59374;53.210;5.726;2022-09-02T02:43:48;13.40;99.90
52517;DHT22;59374;53.210;5.726;2022-09-02T02:46:15;13.40;99.90
52517;DHT22;59374;53.210;5.726;2022-09-02T02:48:42;13.40;99.90
52517;DHT22;59374;53.210;5.726;2022-09-02T02:51:08;13.40;99.90
52517;DHT22;59374;53.210;5.726;2022-09-02T02:53:34;13.30;99.90
52517;DHT22;59374;53.210;5.726;2022-09-02T02:56:02;13.30;99.90
52517;DHT22;59374;53.210;5.726;2022-09-02T02:58:28;13.20;99.90
52517;DHT22;59374;53.210;5.726;2022-09-02T03:00:55;13.20;99.90
52517;DHT22;59374;53.210;5.726;2022-09-02T03:03:20;13.20;99.90
52517;DHT22;59374;53.210;5.726;2022-09-02T03:05:47;13.20;99.90
52517;DHT22;59374;53.210;5.726;2022-09-02T03:08:14;13.10;99.90
52517;DHT22;59374;53.210;5.726;2022-09-02T03:10:41;13.10;99.90
52517;DHT22;59374;53.210;5.726;2022-09-02T03:13:09;13.10;99.90
52517;DHT22;59374;53.210;5.726;2022-09-02T03:15:36;13.10;99.90
52517;DHT22;59374;53.210;5.726;2022-09-02T03:18:01;13.10;99.90
52517;DHT22;59374;53.210;5.726;2022-09-02T03:20:27;13.10;99.90
52517;DHT22;59374;53.210;5.726;2022-09-02T03:22:55;13.00;99.90
52517;DHT22;59374;53.210;5.726;2022-09-02T03:25:22;12.90;99.90
52517;DHT22;59374;53.210;5.726;2022-09-02T03:27:48;13.00;99.90
52517;DHT22;59374;53.210;5.726;2022-09-02T03:30:17;13.00;99.90
52517;DHT22;59374;53.210;5.726;2022-09-02T03:32:43;13.00;99.90
52517;DHT22;59374;53.210;5.726;2022-09-02T03:35:09;13.00;99.90
52517;DHT22;59374;53.210;5.726;2022-09-02T03:37:36;13.00;99.90
52517;DHT22;59374;53.210;5.726;2022-09-02T03:40:08;13.00;99.90
52517;DHT22;59374;53.210;5.726;2022-09-02T03:42:34;13.00;99.90
52517;DHT22;59374;53.210;5.726;2022-09-02T03:45:01;13.10;99.90
52517;DHT22;59374;53.210;5.726;2022-09-02T03:47:26;13.00;99.90
52517;DHT22;59374;53.210;5.726;2022-09-02T03:49:55;13.00;99.90
52517;DHT22;59374;53.210;5.726;2022-09-02T03:52:21;13.00;99.90
52517;DHT22;59374;53.210;5.726;2022-09-02T03:54:47;13.00;99.90
52517;DHT22;59374;53.210;5.726;2022-09-02T03:57:13;13.00;99.90
52517;DHT22;59374;53.210;5.726;2022-09-02T03:59:39;13.00;99.90
52517;DHT22;59374;53.210;5.726;2022-09-02T04:02:05;12.90;99.90
52517;DHT22;59374;53.210;5.726;2022-09-02T04:04:30;12.90;99.90
52517;DHT22;59374;53.210;5.726;2022-09-02T04:06:56;12.90;99.90
52517;DHT22;59374;53.210;5.726;2022-09-02T04:09:22;12.80;99.90
52517;DHT22;59374;53.210;5.726;2022-09-02T04:11:48;12.90;99.90
52517;DHT22;59374;53.210;5.726;2022-09-02T04:14:14;12.80;99.90
52517;DHT22;59374;53.210;5.726;2022-09-02T04:16:40;12.80;99.90
52517;DHT22;59374;53.210;5.726;2022-09-02T04:19:06;12.80;99.90
52517;DHT22;59374;53.210;5.726;2022-09-02T04:21:35;12.70;99.90
52517;DHT22;59374;53.210;5.726;2022-09-02T04:24:01;12.70;99.90
52517;DHT22;59374;53.210;5.726;2022-09-02T04:26:27;12.70;99.90
52517;DHT22;59374;53.210;5.726;2022-09-02T04:28:53;12.70;99.90
52517;DHT22;59374;53.210;5.726;2022-09-02T04:31:20;12.70;99.90
52517;DHT22;59374;53.210;5.726;2022-09-02T04:33:46;12.60;99.90
52517;DHT22;59374;53.210;5.726;2022-09-02T04:36:14;12.60;99.90
52517;DHT22;59374;53.210;5.726;2022-09-02T04:38:40;12.60;99.90
52517;DHT22;59374;53.210;5.726;2022-09-02T04:41:07;12.50;99.90
52517;DHT22;59374;53.210;5.726;2022-09-02T04:43:32;12.50;99.90
52517;DHT22;59374;53.210;5.726;2022-09-02T04:45:58;12.50;99.90
52517;DHT22;59374;53.210;5.726;2022-09-02T04:48:24;12.50;99.90
52517;DHT22;59374;53.210;5.726;2022-09-02T04:50:49;12.40;99.90
52517;DHT22;59374;53.210;5.726;2022-09-02T04:53:15;12.50;99.90
52517;DHT22;59374;53.210;5.726;2022-09-02T04:55:41;12.40;99.90
52517;DHT22;59374;53.210;5.726;2022-09-02T04:58:08;12.40;99.90
52517;DHT22;59374;53.210;5.726;2022-09-02T05:00:33;12.40;99.90
52517;DHT22;59374;53.210;5.726;2022-09-02T05:03:01;12.40;99.90
52517;DHT22;59374;53.210;5.726;2022-09-02T05:05:26;12.50;99.90
52517;DHT22;59374;53.210;5.726;2022-09-02T05:07:52;12.50;99.90
52517;DHT22;59374;53.210;5.726;2022-09-02T05:10:20;12.50;99.90
52517;DHT22;59374;53.210;5.726;2022-09-02T05:12:46;12.50;99.90
52517;DHT22;59374;53.210;5.726;2022-09-02T05:15:12;12.50;99.90
52517;DHT22;59374;53.210;5.726;2022-09-02T05:17:38;12.60;99.90
52517;DHT22;59374;53.210;5.726;2022-09-02T05:20:06;12.60;99.90
52517;DHT22;59374;53.210;5.726;2022-09-02T05:22:33;12.60;99.90
52517;DHT22;59374;53.210;5.726;2022-09-02T05:24:58;12.60;99.90
52517;DHT22;59374;53.210;5.726;2022-09-02T05:27:24;12.70;99.90
52517;DHT22;59374;53.210;5.726;2022-09-02T05:29:56;12.70;99.90
52517;DHT22;59374;53.210;5.726;2022-09-02T05:32:24;12.70;99.90
52517;DHT22;59374;53.210;5.726;2022-09-02T05:34:53;12.70;99.90
52517;DHT22;59374;53.210;5.726;2022-09-02T05:37:19;12.80;99.90
52517;DHT22;59374;53.210;5.726;2022-09-02T05:39:44;12.80;99.90
52517;DHT22;59374;53.210;5.726;2022-09-02T05:42:10;12.90;99.90
52517;DHT22;59374;53.210;5.726;2022-09-02T05:44:36;12.90;99.90
52517;DHT22;59374;53.210;5.726;2022-09-02T05:47:03;12.90;99.90
52517;DHT22;59374;53.210;5.726;2022-09-02T05:49:29;13.00;99.90
52517;DHT22;59374;53.210;5.726;2022-09-02T05:51:56;13.00;99.90
52517;DHT22;59374;53.210;5.726;2022-09-02T05:54:27;13.10;99.90
52517;DHT22;59374;53.210;5.726;2022-09-02T05:56:56;13.10;99.90
52517;DHT22;59374;53.210;5.726;2022-09-02T05:59:25;13.20;99.90
52517;DHT22;59374;53.210;5.726;2022-09-02T06:01:52;13.20;99.90
52517;DHT22;59374;53.210;5.726;2022-09-02T06:04:19;13.30;99.90
52517;DHT22;59374;53.210;5.726;2022-09-02T06:06:46;13.40;99.90
52517;DHT22;59374;53.210;5.726;2022-09-02T06:09:12;13.40;99.90
52517;DHT22;59374;53.210;5.726;2022-09-02T06:11:40;13.50;99.90
52517;DHT22;59374;53.210;5.726;2022-09-02T06:14:09;13.50;99.90
52517;DHT22;59374;53.210;5.726;2022-09-02T06:16:37;13.60;99.90
52517;DHT22;59374;53.210;5.726;2022-09-02T06:19:03;13.70;99.90
52517;DHT22;59374;53.210;5.726;2022-09-02T06:21:29;13.70;99.90
52517;DHT22;59374;53.210;5.726;2022-09-02T06:23:55;13.80;99.90
52517;DHT22;59374;53.210;5.726;2022-09-02T06:26:20;13.90;99.90
52517;DHT22;59374;53.210;5.726;2022-09-02T06:28:46;14.00;99.90
52517;DHT22;59374;53.210;5.726;2022-09-02T06:31:18;14.00;99.90
52517;DHT22;59374;53.210;5.726;2022-09-02T06:33:46;14.10;99.90
52517;DHT22;59374;53.210;5.726;2022-09-02T06:36:15;14.20;99.90
52517;DHT22;59374;53.210;5.726;2022-09-02T06:38:44;14.40;99.90
52517;DHT22;59374;53.210;5.726;2022-09-02T06:41:13;14.40;99.90
52517;DHT22;59374;53.210;5.726;2022-09-02T06:43:39;14.50;99.90
52517;DHT22;59374;53.210;5.726;2022-09-02T06:46:04;14.60;99.90
52517;DHT22;59374;53.210;5.726;2022-09-02T06:48:30;14.70;99.90
52517;DHT22;59374;53.210;5.726;2022-09-02T06:50:56;14.80;99.90
52517;DHT22;59374;53.210;5.726;2022-09-02T06:53:22;14.90;99.90
52517;DHT22;59374;53.210;5.726;2022-09-02T06:55:49;15.10;99.90
52517;DHT22;59374;53.210;5.726;2022-09-02T06:58:15;15.10;99.90
52517;DHT22;59374;53.210;5.726;2022-09-02T07:00:42;15.30;99.90
52517;DHT22;59374;53.210;5.726;2022-09-02T07:03:09;15.40;99.90
52517;DHT22;59374;53.210;5.726;2022-09-02T07:06:19;15.50;99.90
52517;DHT22;59374;53.210;5.726;2022-09-02T07:08:45;15.60;99.90
52517;DHT22;59374;53.210;5.726;2022-09-02T07:11:22;15.80;99.90
52517;DHT22;59374;53.210;5.726;2022-09-02T07:13:48;15.80;99.90
52517;DHT22;59374;53.210;5.726;2022-09-02T07:16:15;16.00;99.90
52517;DHT22;59374;53.210;5.726;2022-09-02T07:18:40;16.10;99.90
52517;DHT22;59374;53.210;5.726;2022-09-02T07:21:09;16.20;99.90
52517;DHT22;59374;53.210;5.726;2022-09-02T07:23:35;16.30;99.90
52517;DHT22;59374;53.210;5.726;2022-09-02T07:26:01;16.40;99.90
52517;DHT22;59374;53.210;5.726;2022-09-02T07:28:26;16.50;99.90
52517;DHT22;59374;53.210;5.726;2022-09-02T07:30:52;16.60;99.90
52517;DHT22;59374;53.210;5.726;2022-09-02T07:33:20;16.70;99.90
52517;DHT22;59374;53.210;5.726;2022-09-02T07:35:48;16.80;99.90
52517;DHT22;59374;53.210;5.726;2022-09-02T07:38:14;17.00;99.90
52517;DHT22;59374;53.210;5.726;2022-09-02T07:40:41;17.10;99.90
52517;DHT22;59374;53.210;5.726;2022-09-02T07:43:09;17.20;99.90
52517;DHT22;59374;53.210;5.726;2022-09-02T07:45:36;17.30;99.90
52517;DHT22;59374;53.210;5.726;2022-09-02T07:48:03;17.40;99.90
52517;DHT22;59374;53.210;5.726;2022-09-02T07:50:33;17.50;99.90
52517;DHT22;59374;53.210;5.726;2022-09-02T07:52:59;17.60;99.90
52517;DHT22;59374;53.210;5.726;2022-09-02T07:55:26;17.70;99.90
52517;DHT22;59374;53.210;5.726;2022-09-02T07:57:53;17.90;99.90
52517;DHT22;59374;53.210;5.726;2022-09-02T08:00:20;18.00;99.90
52517;DHT22;59374;53.210;5.726;2022-09-02T08:02:47;18.10;99.90
52517;DHT22;59374;53.210;5.726;2022-09-02T08:05:13;18.20;99.90
52517;DHT22;59374;53.210;5.726;2022-09-02T08:07:40;18.30;99.90
52517;DHT22;59374;53.210;5.726;2022-09-02T08:10:07;18.40;99.90
52517;DHT22;59374;53.210;5.726;2022-09-02T08:12:36;18.40;99.90
52517;DHT22;59374;53.210;5.726;2022-09-02T08:15:03;18.50;99.90
52517;DHT22;59374;53.210;5.726;2022-09-02T08:17:30;18.60;99.90
52517;DHT22;59374;53.210;5.726;2022-09-02T08:19:55;18.70;99.90
52517;DHT22;59374;53.210;5.726;2022-09-02T08:22:21;18.80;99.90
52517;DHT22;59374;53.210;5.726;2022-09-02T08:24:46;18.90;99.90
52517;DHT22;59374;53.210;5.726;2022-09-02T08:27:12;19.00;99.90
52517;DHT22;59374;53.210;5.726;2022-09-02T08:29:38;19.10;99.90
52517;DHT22;59374;53.210;5.726;2022-09-02T08:32:04;19.20;99.90
52517;DHT22;59374;53.210;5.726;2022-09-02T08:34:30;19.30;99.90
52517;DHT22;59374;53.210;5.726;2022-09-02T08:36:56;19.40;99.90
52517;DHT22;59374;53.210;5.726;2022-09-02T08:39:22;19.40;99.90
52517;DHT22;59374;53.210;5.726;2022-09-02T08:44:41;19.60;99.90
52517;DHT22;59374;53.210;5.726;2022-09-02T08:47:12;19.80;99.90
52517;DHT22;59374;53.210;5.726;2022-09-02T08:49:49;19.80;99.90
52517;DHT22;59374;53.210;5.726;2022-09-02T08:52:38;19.90;99.90
52517;DHT22;59374;53.210;5.726;2022-09-02T08:55:11;20.00;99.90
52517;DHT22;59374;53.210;5.726;2022-09-02T08:57:44;20.10;99.90
52517;DHT22;59374;53.210;5.726;2022-09-02T09:00:10;20.20;99.90
52517;DHT22;59374;53.210;5.726;2022-09-02T09:03:00;20.30;99.90
52517;DHT22;59374;53.210;5.726;2022-09-02T09:11:08;20.60;99.90
52517;DHT22;59374;53.210;5.726;2022-09-02T09:22:00;21.10;99.90
52517;DHT22;59374;53.210;5.726;2022-09-02T09:24:40;21.30;99.90
52517;DHT22;59374;53.210;5.726;2022-09-02T09:27:17;21.50;99.90
52517;DHT22;59374;53.210;5.726;2022-09-02T09:29:43;21.60;99.20
52517;DHT22;59374;53.210;5.726;2022-09-02T09:34:59;21.80;99.50
52517;DHT22;59374;53.210;5.726;2022-09-02T09:37:50;21.90;96.70
52517;DHT22;59374;53.210;5.726;2022-09-02T09:42:58;22.10;96.90
52517;DHT22;59374;53.210;5.726;2022-09-02T09:45:38;22.20;97.00
52517;DHT22;59374;53.210;5.726;2022-09-02T09:48:24;22.30;97.30
52517;DHT22;59374;53.210;5.726;2022-09-02T09:53:24;22.50;96.90
52517;DHT22;59374;53.210;5.726;2022-09-02T09:55:57;22.60;96.70
52517;DHT22;59374;53.210;5.726;2022-09-02T09:58:44;22.70;96.50
52517;DHT22;59374;53.210;5.726;2022-09-02T10:01:16;22.80;94.80
52517;DHT22;59374;53.210;5.726;2022-09-02T10:04:06;22.80;93.80
52517;DHT22;59374;53.210;5.726;2022-09-02T10:09:03;22.80;94.90
52517;DHT22;59374;53.210;5.726;2022-09-02T10:11:36;22.80;95.00
52517;DHT22;59374;53.210;5.726;2022-09-02T10:14:07;22.90;94.00
52517;DHT22;59374;53.210;5.726;2022-09-02T10:16:56;23.00;94.80
52517;DHT22;59374;53.210;5.726;2022-09-02T10:25:04;23.30;93.90
52517;DHT22;59374;53.210;5.726;2022-09-02T10:31:03;23.40;93.40
52517;DHT22;59374;53.210;5.726;2022-09-02T10:41:44;23.90;91.70
52517;DHT22;59374;53.210;5.726;2022-09-02T10:44:32;23.90;92.40
52517;DHT22;59374;53.210;5.726;2022-09-02T10:47:20;23.90;92.00
52517;DHT22;59374;53.210;5.726;2022-09-02T10:50:11;24.00;91.90
52517;DHT22;59374;53.210;5.726;2022-09-02T10:55:41;24.10;91.50
52517;DHT22;59374;53.210;5.726;2022-09-02T11:01:06;24.40;91.70
52517;DHT22;59374;53.210;5.726;2022-09-02T11:03:42;24.60;91.60
52517;DHT22;59374;53.210;5.726;2022-09-02T11:06:20;24.70;91.50
52517;DHT22;59374;53.210;5.726;2022-09-02T11:08:53;24.90;90.80
52517;DHT22;59374;53.210;5.726;2022-09-02T11:11:32;25.00;90.30
52517;DHT22;59374;53.210;5.726;2022-09-02T11:17:18;25.20;90.50
52517;DHT22;59374;53.210;5.726;2022-09-02T11:19:58;25.40;88.80
52517;DHT22;59374;53.210;5.726;2022-09-02T11:22:39;25.50;90.00
52517;DHT22;59374;53.210;5.726;2022-09-02T11:25:36;25.50;89.40
52517;DHT22;59374;53.210;5.726;2022-09-02T11:28:22;25.50;87.90
52517;DHT22;59374;53.210;5.726;2022-09-02T11:31:09;25.50;86.90
52517;DHT22;59374;53.210;5.726;2022-09-02T11:33:54;25.60;88.60
52517;DHT22;59374;53.210;5.726;2022-09-02T11:36:23;25.70;86.70
52517;DHT22;59374;53.210;5.726;2022-09-02T11:38:58;25.70;88.50
52517;DHT22;59374;53.210;5.726;2022-09-02T11:41:52;25.70;87.70
52517;DHT22;59374;53.210;5.726;2022-09-02T11:44:43;25.70;85.70
52517;DHT22;59374;53.210;5.726;2022-09-02T11:55:41;26.30;84.20
52517;DHT22;59374;53.210;5.726;2022-09-02T11:58:10;26.40;84.50
52517;DHT22;59374;53.210;5.726;2022-09-02T12:03:23;26.70;83.70
52517;DHT22;59374;53.210;5.726;2022-09-02T12:11:04;27.30;84.90
52517;DHT22;59374;53.210;5.726;2022-09-02T12:13:38;27.50;83.30
52517;DHT22;59374;53.210;5.726;2022-09-02T12:18:44;27.70;83.20
52517;DHT22;59374;53.210;5.726;2022-09-02T12:21:14;27.80;81.70
52517;DHT22;59374;53.210;5.726;2022-09-02T12:31:42;28.20;79.50
52517;DHT22;59374;53.210;5.726;2022-09-02T12:40:18;28.00;78.30
52517;DHT22;59374;53.210;5.726;2022-09-02T12:42:45;28.00;79.70
52517;DHT22;59374;53.210;5.726;2022-09-02T12:45:23;28.00;79.70
52517;DHT22;59374;53.210;5.726;2022-09-02T12:52:48;28.50;79.30
52517;DHT22;59374;53.210;5.726;2022-09-02T12:55:28;28.50;78.00
52517;DHT22;59374;53.210;5.726;2022-09-02T13:01:03;28.40;76.80
52517;DHT22;59374;53.210;5.726;2022-09-02T13:09:19;28.70;77.50
52517;DHT22;59374;53.210;5.726;2022-09-02T13:17:47;29.10;76.70
52517;DHT22;59374;53.210;5.726;2022-09-02T13:31:03;29.90;74.80
52517;DHT22;59374;53.210;5.726;2022-09-02T13:33:31;30.00;73.80
52517;DHT22;59374;53.210;5.726;2022-09-02T13:35:58;30.10;75.10
52517;DHT22;59374;53.210;5.726;2022-09-02T13:38:26;30.20;74.50
52517;DHT22;59374;53.210;5.726;2022-09-02T13:40:52;30.20;74.70
52517;DHT22;59374;53.210;5.726;2022-09-02T13:43:23;30.30;74.40
52517;DHT22;59374;53.210;5.726;2022-09-02T13:45:52;30.40;74.20
52517;DHT22;59374;53.210;5.726;2022-09-02T13:48:19;30.40;72.80
52517;DHT22;59374;53.210;5.726;2022-09-02T13:50:51;30.30;73.20
52517;DHT22;59374;53.210;5.726;2022-09-02T13:53:32;30.50;72.10
52517;DHT22;59374;53.210;5.726;2022-09-02T13:55:58;30.40;72.90
52517;DHT22;59374;53.210;5.726;2022-09-02T14:00:53;30.80;73.50
52517;DHT22;59374;53.210;5.726;2022-09-02T14:03:22;30.90;72.60
52517;DHT22;59374;53.210;5.726;2022-09-02T14:05:52;30.90;72.50
52517;DHT22;59374;53.210;5.726;2022-09-02T14:08:21;31.10;71.30
52517;DHT22;59374;53.210;5.726;2022-09-02T14:10:48;31.30;72.50
52517;DHT22;59374;53.210;5.726;2022-09-02T14:13:16;31.70;71.80
52517;DHT22;59374;53.210;5.726;2022-09-02T14:15:42;31.90;71.50
52517;DHT22;59374;53.210;5.726;2022-09-02T14:20:37;32.70;71.10
52517;DHT22;59374;53.210;5.726;2022-09-02T14:23:03;32.80;70.40
52517;DHT22;59374;53.210;5.726;2022-09-02T14:25:37;33.10;69.60
52517;DHT22;59374;53.210;5.726;2022-09-02T14:28:09;33.30;69.00
52517;DHT22;59374;53.210;5.726;2022-09-02T14:30:39;33.60;68.50
52517;DHT22;59374;53.210;5.726;2022-09-02T14:36:01;33.90;66.30
52517;DHT22;59374;53.210;5.726;2022-09-02T14:41:17;34.60;67.00
52517;DHT22;59374;53.210;5.726;2022-09-02T14:43:48;35.00;67.20
52517;DHT22;59374;53.210;5.726;2022-09-02T14:49:22;35.70;66.30
52517;DHT22;59374;53.210;5.726;2022-09-02T14:51:56;35.80;63.90
52517;DHT22;59374;53.210;5.726;2022-09-02T14:54:53;35.80;64.40
52517;DHT22;59374;53.210;5.726;2022-09-02T14:57:32;35.70;62.40
52517;DHT22;59374;53.210;5.726;2022-09-02T15:00:08;35.70;62.90
52517;DHT22;59374;53.210;5.726;2022-09-02T15:02:35;35.60;62.70
52517;DHT22;59374;53.210;5.726;2022-09-02T15:05:05;35.70;63.70
52517;DHT22;59374;53.210;5.726;2022-09-02T15:07:31;35.70;63.00
52517;DHT22;59374;53.210;5.726;2022-09-02T15:09:57;35.70;62.30
52517;DHT22;59374;53.210;5.726;2022-09-02T15:12:26;35.50;61.60
52517;DHT22;59374;53.210;5.726;2022-09-02T15:14:54;35.30;61.40
52517;DHT22;59374;53.210;5.726;2022-09-02T15:17:20;35.00;60.80
52517;DHT22;59374;53.210;5.726;2022-09-02T15:19:47;35.00;61.10
52517;DHT22;59374;53.210;5.726;2022-09-02T15:22:13;35.00;60.70
52517;DHT22;59374;53.210;5.726;2022-09-02T15:24:39;35.00;61.00
52517;DHT22;59374;53.210;5.726;2022-09-02T15:37:25;35.00;59.40
52517;DHT22;59374;53.210;5.726;2022-09-02T15:40:11;34.90;60.40
52517;DHT22;59374;53.210;5.726;2022-09-02T15:53:22;35.00;59.30
52517;DHT22;59374;53.210;5.726;2022-09-02T15:55:48;35.50;59.30
52517;DHT22;59374;53.210;5.726;2022-09-02T15:58:13;35.70;60.00
52517;DHT22;59374;53.210;5.726;2022-09-02T16:00:39;35.70;59.60
52517;DHT22;59374;53.210;5.726;2022-09-02T16:03:05;35.70;59.40
52517;DHT22;59374;53.210;5.726;2022-09-02T16:05:31;35.90;59.70
52517;DHT22;59374;53.210;5.726;2022-09-02T16:07:57;36.40;59.90
52517;DHT22;59374;53.210;5.726;2022-09-02T16:10:22;36.80;59.70
52517;DHT22;59374;53.210;5.726;2022-09-02T16:12:48;37.10;59.50
52517;DHT22;59374;53.210;5.726;2022-09-02T16:15:14;37.10;58.70
52517;DHT22;59374;53.210;5.726;2022-09-02T16:17:39;37.20;58.50
52517;DHT22;59374;53.210;5.726;2022-09-02T16:20:06;37.40;58.90
52517;DHT22;59374;53.210;5.726;2022-09-02T16:22:32;37.60;57.90
52517;DHT22;59374;53.210;5.726;2022-09-02T16:24:58;37.70;57.40
52517;DHT22;59374;53.210;5.726;2022-09-02T16:27:23;37.60;57.10
52517;DHT22;59374;53.210;5.726;2022-09-02T16:30:07;37.40;56.30
52517;DHT22;59374;53.210;5.726;2022-09-02T16:32:33;37.30;56.40
52517;DHT22;59374;53.210;5.726;2022-09-02T16:34:59;37.50;56.60
52517;DHT22;59374;53.210;5.726;2022-09-02T16:37:24;37.30;55.70
52517;DHT22;59374;53.210;5.726;2022-09-02T16:39:50;36.60;55.10
52517;DHT22;59374;53.210;5.726;2022-09-02T16:42:17;35.70;55.20
52517;DHT22;59374;53.210;5.726;2022-09-02T16:44:42;34.70;55.30
52517;DHT22;59374;53.210;5.726;2022-09-02T16:47:10;33.60;55.40
52517;DHT22;59374;53.210;5.726;2022-09-02T16:49:35;32.70;56.10
52517;DHT22;59374;53.210;5.726;2022-09-02T16:52:01;31.80;56.80
52517;DHT22;59374;53.210;5.726;2022-09-02T16:54:27;31.10;57.10
52517;DHT22;59374;53.210;5.726;2022-09-02T16:56:55;30.60;58.00
52517;DHT22;59374;53.210;5.726;2022-09-02T16:59:21;30.40;59.20
52517;DHT22;59374;53.210;5.726;2022-09-02T17:01:46;30.60;59.80
52517;DHT22;59374;53.210;5.726;2022-09-02T17:04:12;31.00;60.00
52517;DHT22;59374;53.210;5.726;2022-09-02T17:06:38;31.00;59.40
52517;DHT22;59374;53.210;5.726;2022-09-02T17:09:03;30.90;59.10
52517;DHT22;59374;53.210;5.726;2022-09-02T17:11:34;30.50;59.10
52517;DHT22;59374;53.210;5.726;2022-09-02T17:14:04;30.00;59.10
52517;DHT22;59374;53.210;5.726;2022-09-02T17:16:33;29.50;59.50
52517;DHT22;59374;53.210;5.726;2022-09-02T17:18:59;29.00;59.60
52517;DHT22;59374;53.210;5.726;2022-09-02T17:21:35;28.50;59.90
52517;DHT22;59374;53.210;5.726;2022-09-02T17:24:03;28.10;60.70
52517;DHT22;59374;53.210;5.726;2022-09-02T17:26:30;27.60;60.90
52517;DHT22;59374;53.210;5.726;2022-09-02T17:28:59;27.20;61.40
52517;DHT22;59374;53.210;5.726;2022-09-02T17:31:32;26.80;62.00
52517;DHT22;59374;53.210;5.726;2022-09-02T17:34:03;26.60;64.00
52517;DHT22;59374;53.210;5.726;2022-09-02T17:36:32;26.30;63.00
52517;DHT22;59374;53.210;5.726;2022-09-02T17:41:28;25.70;64.30
52517;DHT22;59374;53.210;5.726;2022-09-02T17:44:13;25.40;64.20
52517;DHT22;59374;53.210;5.726;2022-09-02T17:46:40;24.90;65.20
52517;DHT22;59374;53.210;5.726;2022-09-02T17:49:06;24.70;65.10
52517;DHT22;59374;53.210;5.726;2022-09-02T17:51:32;24.50;65.30
52517;DHT22;59374;53.210;5.726;2022-09-02T17:53:58;24.20;66.10
52517;DHT22;59374;53.210;5.726;2022-09-02T18:02:03;23.50;67.70
52517;DHT22;59374;53.210;5.726;2022-09-02T18:10:15;22.80;70.80
52517;DHT22;59374;53.210;5.726;2022-09-02T18:12:40;22.60;69.00
52517;DHT22;59374;53.210;5.726;2022-09-02T18:15:08;22.40;69.40
52517;DHT22;59374;53.210;5.726;2022-09-02T18:17:42;22.30;69.90
52517;DHT22;59374;53.210;5.726;2022-09-02T18:25:35;21.70;71.00
52517;DHT22;59374;53.210;5.726;2022-09-02T18:39:31;20.80;74.30
52517;DHT22;59374;53.210;5.726;2022-09-02T18:42:31;20.70;75.10
52517;DHT22;59374;53.210;5.726;2022-09-02T18:48:03;20.50;76.50